ADDS METAR Data INFO
IDs: Format: Raw Decoded Include TAF

Data at: 1900 UTC 24 Jun 2017

METAR for:KSJC (San Jose Intl Arpt, CA, US)
Text:KSJC 241853Z VRB03KT 10SM FEW020 SCT100 BKN180 22/15 A2996 RMK AO2 SLP143 T02220150
Temperature: 22.2°C ( 72°F)
Dewpoint: 15.0°C ( 59°F) [RH = 64%]
Pressure (altimeter):29.96 inches Hg (1014.6 mb) [Sea level pressure: 1014.3 mb]
Winds:variable direction winds at 3 MPH (3 knots; 1.5 m/s)
Visibility:10 or more sm (16+ km)
Ceiling:18000 feet AGL
Clouds: few clouds at 2000 feet AGL, scattered clouds at 10000 feet AGL, broken clouds at 18000 feet AGL
Text:KSJC 241753Z VRB03KT 10SM FEW002 SCT020 SCT045 21/15 A2996 RMK AO2 SLP144 T02060150 10206 20167 58001
Temperature: 20.6°C ( 69°F)
Dewpoint: 15.0°C ( 59°F) [RH = 70%]
Pressure (altimeter):29.96 inches Hg (1014.6 mb) [Sea level pressure: 1014.4 mb]
Winds:variable direction winds at 3 MPH (3 knots; 1.5 m/s)
Visibility:10 or more sm (16+ km)
Ceiling:at least 12,000 feet AGL
Clouds: few clouds at 200 feet AGL, scattered clouds at 2000 feet AGL, scattered clouds at 4500 feet AGL
Text:KSJC 241729Z 00000KT 9SM FEW002 SCT016 BKN030 20/15 A2997 RMK AO2 T02000150
Temperature: 20.0°C ( 68°F)
Dewpoint: 15.0°C ( 59°F) [RH = 73%]
Pressure (altimeter):29.97 inches Hg (1015.0 mb)
Winds:calm
Visibility: 9 sm ( 14 km)
Ceiling:3000 feet AGL
Clouds: few clouds at 200 feet AGL, scattered clouds at 1600 feet AGL, broken clouds at 3000 feet AGL
Text:KSJC 241653Z 30005KT 10SM FEW001 BKN014 OVC020 19/15 A2997 RMK AO2 SLP147 T01890150
Temperature: 18.9°C ( 66°F)
Dewpoint: 15.0°C ( 59°F) [RH = 78%]
Pressure (altimeter):29.97 inches Hg (1015.0 mb) [Sea level pressure: 1014.7 mb]
Winds:from the WNW (300 degrees) at 6 MPH (5 knots; 2.6 m/s)
Visibility:10 or more sm (16+ km)
Ceiling:1400 feet AGL
Clouds: few clouds at 100 feet AGL, broken clouds at 1400 feet AGL, overcast cloud deck at 2000 feet AGL
Text:KSJC 241632Z 25003KT 10SM FEW001 BKN014 OVC020 18/15 A2997 RMK AO2 T01830150
Temperature: 18.3°C ( 65°F)
Dewpoint: 15.0°C ( 59°F) [RH = 81%]
Pressure (altimeter):29.97 inches Hg (1015.0 mb)
Winds:from the WSW (250 degrees) at 3 MPH (3 knots; 1.5 m/s)
Visibility:10 or more sm (16+ km)
Ceiling:1400 feet AGL
Clouds: few clouds at 100 feet AGL, broken clouds at 1400 feet AGL, overcast cloud deck at 2000 feet AGL
Text:KSJC 241553Z 32003KT 10SM FEW006 BKN015 OVC020 18/15 A2997 RMK AO2 SLP149 T01830150
Temperature: 18.3°C ( 65°F)
Dewpoint: 15.0°C ( 59°F) [RH = 81%]
Pressure (altimeter):29.97 inches Hg (1015.0 mb) [Sea level pressure: 1014.9 mb]
Winds:from the NW (320 degrees) at 3 MPH (3 knots; 1.5 m/s)
Visibility:10 or more sm (16+ km)
Ceiling:1500 feet AGL
Clouds: few clouds at 600 feet AGL, broken clouds at 1500 feet AGL, overcast cloud deck at 2000 feet AGL
Text:KSJC 241453Z 00000KT 10SM FEW005 BKN014 OVC018 18/15 A2996 RMK AO2 SLP146 T01780150 51012
Temperature: 17.8°C ( 64°F)
Dewpoint: 15.0°C ( 59°F) [RH = 84%]
Pressure (altimeter):29.96 inches Hg (1014.6 mb) [Sea level pressure: 1014.6 mb]
Winds:calm
Visibility:10 or more sm (16+ km)
Ceiling:1400 feet AGL
Clouds: few clouds at 500 feet AGL, broken clouds at 1400 feet AGL, overcast cloud deck at 1800 feet AGL
Text:KSJC 241353Z 00000KT 10SM FEW005 BKN011 OVC015 18/15 A2996 RMK AO2 SLP145 T01780150
Temperature: 17.8°C ( 64°F)
Dewpoint: 15.0°C ( 59°F) [RH = 84%]
Pressure (altimeter):29.96 inches Hg (1014.6 mb) [Sea level pressure: 1014.5 mb]
Winds:calm
Visibility:10 or more sm (16+ km)
Ceiling:1100 feet AGL
Clouds: few clouds at 500 feet AGL, broken clouds at 1100 feet AGL, overcast cloud deck at 1500 feet AGL
Text:KSJC 241253Z 00000KT 10SM FEW005 BKN011 OVC014 17/15 A2995 RMK AO2 SLP140 T01720150
Temperature: 17.2°C ( 63°F)
Dewpoint: 15.0°C ( 59°F) [RH = 87%]
Pressure (altimeter):29.95 inches Hg (1014.3 mb) [Sea level pressure: 1014.0 mb]
Winds:calm
Visibility:10 or more sm (16+ km)
Ceiling:1100 feet AGL
Clouds: few clouds at 500 feet AGL, broken clouds at 1100 feet AGL, overcast cloud deck at 1400 feet AGL
Text:KSJC 241231Z 00000KT 10SM FEW005 BKN010 OVC014 17/15 A2994 RMK AO2 T01720150
Temperature: 17.2°C ( 63°F)
Dewpoint: 15.0°C ( 59°F) [RH = 87%]
Pressure (altimeter):29.94 inches Hg (1014.0 mb)
Winds:calm
Visibility:10 or more sm (16+ km)
Ceiling:1000 feet AGL
Clouds: few clouds at 500 feet AGL, broken clouds at 1000 feet AGL, overcast cloud deck at 1400 feet AGL
Text:KSJC 241153Z AUTO 28003KT 10SM OVC010 17/15 A2993 RMK AO2 SLP134 T01720150 10178 20167 55004
Temperature: 17.2°C ( 63°F)
Dewpoint: 15.0°C ( 59°F) [RH = 87%]
Pressure (altimeter):29.93 inches Hg (1013.6 mb) [Sea level pressure: 1013.4 mb]
Winds:from the W (280 degrees) at 3 MPH (3 knots; 1.5 m/s)
Visibility:10 or more sm (16+ km)
Ceiling:1000 feet AGL
Clouds: overcast cloud deck at 1000 feet AGL
QC Flag:automated observation with no human augmentation
Text:KSJC 241053Z AUTO 26004KT 10SM OVC009 17/15 A2992 RMK AO2 SLP132 T01720150
Temperature: 17.2°C ( 63°F)
Dewpoint: 15.0°C ( 59°F) [RH = 87%]
Pressure (altimeter):29.92 inches Hg (1013.3 mb) [Sea level pressure: 1013.2 mb]
Winds:from the W (260 degrees) at 5 MPH (4 knots; 2.1 m/s)
Visibility:10 or more sm (16+ km)
Ceiling:900 feet AGL
Clouds: overcast cloud deck at 900 feet AGL
QC Flag:automated observation with no human augmentation
Text:KSJC 241006Z AUTO 29003KT 10SM OVC009 17/15 A2993 RMK AO2 T01720150
Temperature: 17.2°C ( 63°F)
Dewpoint: 15.0°C ( 59°F) [RH = 87%]
Pressure (altimeter):29.93 inches Hg (1013.6 mb)
Winds:from the WNW (290 degrees) at 3 MPH (3 knots; 1.5 m/s)
Visibility:10 or more sm (16+ km)
Ceiling:900 feet AGL
Clouds: overcast cloud deck at 900 feet AGL
QC Flag:automated observation with no human augmentation
Text:KSJC 240953Z AUTO 30004KT 10SM OVC010 17/15 A2993 RMK AO2 SLP135 T01720150
Temperature: 17.2°C ( 63°F)
Dewpoint: 15.0°C ( 59°F) [RH = 87%]
Pressure (altimeter):29.93 inches Hg (1013.6 mb) [Sea level pressure: 1013.5 mb]
Winds:from the WNW (300 degrees) at 5 MPH (4 knots; 2.1 m/s)
Visibility:10 or more sm (16+ km)
Ceiling:1000 feet AGL
Clouds: overcast cloud deck at 1000 feet AGL
QC Flag:automated observation with no human augmentation
Text:KSJC 240853Z AUTO 32005KT 10SM OVC010 17/15 A2994 RMK AO2 SLP138 T01670150 50000
Temperature: 16.7°C ( 62°F)
Dewpoint: 15.0°C ( 59°F) [RH = 90%]
Pressure (altimeter):29.94 inches Hg (1014.0 mb) [Sea level pressure: 1013.8 mb]
Winds:from the NW (320 degrees) at 6 MPH (5 knots; 2.6 m/s)
Visibility:10 or more sm (16+ km)
Ceiling:1000 feet AGL
Clouds: overcast cloud deck at 1000 feet AGL
QC Flag:automated observation with no human augmentation
Text:KSJC 240825Z AUTO 33005KT 10SM BKN010 17/15 A2995 RMK AO2 T01670150
Temperature: 16.7°C ( 62°F)
Dewpoint: 15.0°C ( 59°F) [RH = 90%]
Pressure (altimeter):29.95 inches Hg (1014.3 mb)
Winds:from the NNW (330 degrees) at 6 MPH (5 knots; 2.6 m/s)
Visibility:10 or more sm (16+ km)
Ceiling:1000 feet AGL
Clouds: broken clouds at 1000 feet AGL
QC Flag:automated observation with no human augmentation
Text:KSJC 240753Z AUTO 31006KT 10SM CLR 17/14 A2995 RMK AO2 SLP140 T01670144 402830167
Temperature: 16.7°C ( 62°F)
Dewpoint: 14.4°C ( 58°F) [RH = 86%]
Pressure (altimeter):29.95 inches Hg (1014.3 mb) [Sea level pressure: 1014.0 mb]
Winds:from the NW (310 degrees) at 7 MPH (6 knots; 3.1 m/s)
Visibility:10 or more sm (16+ km)
Ceiling:at least 12,000 feet AGL
Clouds:sky clear below 12,000 feet AGL
QC Flag:automated observation with no human augmentation


Page loaded:  19:00 UTC  |   12:00 PM Pacific  |   01:00 PM Mountain  |   02:00 PM Central  |   03:00 PM Eastern

 

ADVISORIES

FORECASTS

FORECASTS

OBSERVATIONS

USER TOOLS

ABOUT US